Time;durP1;ratioP1;P1;durP2;ratioP2;P2;SDS_P1;SDS_P2;PMS_P1;PMS_P2;Temp;Humidity;BMP_temperature;BMP_pressure;BME280_temperature;BME280_humidity;BME280_pressure;Samples;Min_cycle;Max_cycle;Signal;HPM_P1;HPM_P2
2022/12/17 13:06:53;;;;;;;24.63;12.60;;;;;;;42.06;34.13;100662.66;4994378;28;20436;-72
2022/12/17 13:09:37;;;;;;;21.93;11.90;;;;;;;42.30;33.66;100659.16;4976878;28;20436;-72
2022/12/17 13:12:03;;;;;;;23.13;12.70;;;;;;;42.20;34.32;100665.84;5006616;28;20901;-73
2022/12/17 13:14:43;;;;;;;19.90;10.43;;;;;;;42.20;34.22;100649.50;4977141;28;20496;-72
2022/12/17 13:17:15;;;;;;;19.97;12.33;;;;;;;42.06;34.28;100663.44;4977013;28;20628;-73
2022/12/17 13:19:57;;;;;;;20.47;13.30;;;;;;;41.90;34.12;100664.44;4977164;28;20480;-72
2022/12/17 13:22:23;;;;;;;34.27;13.50;;;;;;;42.15;33.60;100657.88;4972661;28;20517;-73
2022/12/17 13:24:52;;;;;;;28.63;11.83;;;;;;;41.72;34.50;100661.09;4985100;28;20946;-75
2022/12/17 13:27:35;;;;;;;18.07;10.63;;;;;;;41.82;34.09;100658.75;4974038;28;20787;-75
2022/12/17 13:30:33;;;;;;;23.43;10.50;;;;;;;41.75;34.53;100655.00;4975099;28;20437;-75
2022/12/17 13:33:22;;;;;;;20.23;12.50;;;;;;;41.75;34.62;100663.97;4957761;28;20473;-74
2022/12/17 13:36:28;;;;;;;22.53;12.20;;;;;;;41.64;35.02;100638.25;4988650;28;20489;-78
2022/12/17 13:39:13;;;;;;;20.03;13.20;;;;;;;42.03;33.83;100644.22;4989623;28;20426;-79
2022/12/17 13:41:39;;;;;;;21.00;11.80;;;;;;;41.88;34.52;100629.38;4973000;28;20418;-76
2022/12/17 13:44:21;;;;;;;32.10;12.47;;;;;;;41.84;34.77;100623.78;4973424;28;20426;-74
2022/12/17 13:46:49;;;;;;;33.27;12.43;;;;;;;42.51;33.65;100627.09;4972700;28;20423;-75
2022/12/17 13:49:24;;;;;;;20.30;13.27;;;;;;;42.08;33.54;100619.50;4972943;28;20777;-74
2022/12/17 13:52:22;;;;;;;25.80;12.20;;;;;;;41.89;33.91;100622.78;4973099;28;20464;-76
2022/12/17 13:54:49;;;;;;;17.10;11.00;;;;;;;41.98;34.37;100612.53;4964453;28;20458;-74
2022/12/17 13:57:23;;;;;;;21.70;12.50;;;;;;;42.25;33.98;100619.28;4967209;28;20459;-77
2022/12/17 14:00:01;;;;;;;27.50;11.50;;;;;;;42.03;34.65;100609.59;4955538;28;20459;-75
2022/12/17 14:02:30;;;;;;;36.60;14.73;;;;;;;42.05;34.31;100604.63;4974255;28;20433;-75
2022/12/17 14:04:58;;;;;;;22.93;12.77;;;;;;;42.16;34.18;100607.69;4963423;28;20523;-74
2022/12/17 14:07:26;;;;;;;17.33;11.57;;;;;;;42.27;33.74;100606.09;4966601;28;20407;-78
2022/12/17 14:09:53;;;;;;;28.07;11.47;;;;;;;41.93;34.01;100611.97;4969974;28;20794;-76
2022/12/17 14:12:22;;;;;;;19.10;11.47;;;;;;;41.92;34.01;100604.94;4973003;28;20978;-73
2022/12/17 14:14:59;;;;;;;22.00;13.03;;;;;;;41.92;35.01;100604.94;4972507;28;20442;-74
2022/12/17 14:17:36;;;;;;;31.53;12.50;;;;;;;41.90;34.25;100608.00;4984797;28;20824;-77
2022/12/17 14:20:11;;;;;;;17.03;12.37;;;;;;;42.48;33.63;100596.97;4951539;28;20807;-75
2022/12/17 14:22:42;;;;;;;23.70;13.57;;;;;;;42.82;33.22;100595.66;4972396;28;20418;-74
2022/12/17 14:25:23;;;;;;;26.67;11.50;;;;;;;42.93;33.02;100592.09;4955696;28;20456;-75
2022/12/17 14:28:01;;;;;;;26.97;13.77;;;;;;;42.73;33.54;100589.56;4956473;28;20484;-72
2022/12/17 14:30:39;;;;;;;22.43;12.00;;;;;;;42.50;33.48;100597.44;4972083;28;20450;-75
2022/12/17 14:33:26;;;;;;;24.30;11.80;;;;;;;42.48;33.30;100600.53;4967911;28;20525;-74
2022/12/17 14:35:54;;;;;;;25.50;12.30;;;;;;;43.31;32.59;100598.19;4989625;28;20845;-76
2022/12/17 14:38:20;;;;;;;16.80;10.80;;;;;;;43.24;32.56;100601.53;4976243;28;21009;-76
2022/12/17 14:40:47;;;;;;;24.83;13.00;;;;;;;43.23;32.20;100599.16;4978405;28;20413;-75
2022/12/17 14:43:14;;;;;;;30.67;13.63;;;;;;;42.84;33.50;100602.34;4991600;28;20445;-77
2022/12/17 14:51:36;;;;;;;18.43;9.43;;;;;;;42.66;33.68;100592.88;4988329;28;20428;-77
2022/12/17 14:54:21;;;;;;;28.37;11.67;;;;;;;42.76;32.93;100600.56;4970346;28;20469;-72
2022/12/17 14:56:48;;;;;;;30.90;12.30;;;;;;;42.71;33.58;100598.06;4974721;28;20450;-74
2022/12/17 14:59:30;;;;;;;16.97;11.27;;;;;;;43.15;32.52;100587.22;4972264;28;20927;-74
2022/12/17 15:01:56;;;;;;;16.50;11.70;;;;;;;43.19;33.21;100593.59;4986434;28;20460;-75
2022/12/17 15:04:22;;;;;;;20.10;12.23;;;;;;;43.48;32.38;100588.91;4974166;28;20457;-74
2022/12/17 15:06:52;;;;;;;23.47;14.03;;;;;;;43.11;32.54;100605.47;4974648;28;20433;-73
2022/12/17 15:09:18;;;;;;;19.83;13.60;;;;;;;43.03;32.77;100596.31;4970081;28;20449;-74
2022/12/17 15:11:44;;;;;;;22.97;12.70;;;;;;;43.46;32.26;100589.25;4974107;28;20941;-72
2022/12/17 15:14:10;;;;;;;24.00;13.83;;;;;;;43.28;32.10;100587.97;4971969;28;21024;-74
2022/12/17 15:16:36;;;;;;;19.03;11.13;;;;;;;43.62;31.81;100583.78;4974231;28;21005;-73
2022/12/17 15:19:02;;;;;;;19.77;10.67;;;;;;;43.12;32.57;100586.00;4972845;28;20446;-75
2022/12/17 15:21:28;;;;;;;18.10;12.30;;;;;;;43.16;32.37;100586.13;4973621;28;20713;-73
2022/12/17 15:23:54;;;;;;;19.90;11.53;;;;;;;42.87;33.08;100596.22;4974318;28;20430;-73
2022/12/17 15:26:20;;;;;;;16.90;11.00;;;;;;;43.06;32.75;100594.81;4974882;28;20500;-74
2022/12/17 15:28:46;;;;;;;19.90;12.33;;;;;;;44.52;30.55;100598.41;4991313;28;20418;-73
2022/12/17 15:31:14;;;;;;;22.93;12.20;;;;;;;44.49;30.63;100607.31;4987493;28;20961;-77
2022/12/17 15:33:41;;;;;;;22.30;11.67;;;;;;;45.31;29.40;100600.78;4981039;28;20441;-74
2022/12/17 15:36:09;;;;;;;22.03;12.33;;;;;;;45.76;29.15;100613.75;4977343;28;20444;-75
2022/12/17 15:38:35;;;;;;;20.60;10.70;;;;;;;45.57;28.51;100613.00;4978250;28;20425;-74
2022/12/17 15:43:09;;;;;;;21.90;11.83;;;;;;;45.00;29.33;100610.00;4977982;28;20816;-73
2022/12/17 15:43:51;;;;;;;20.67;10.23;;;;;;;44.81;29.60;100607.22;4995939;28;20917;-73
2022/12/17 15:46:17;;;;;;;21.43;13.73;;;;;;;43.68;31.37;100607.75;4977602;28;20413;-74
2022/12/17 15:48:43;;;;;;;20.93;12.67;;;;;;;43.00;32.35;100609.84;4978058;28;20581;-74
2022/12/17 15:51:09;;;;;;;16.17;11.27;;;;;;;43.19;32.13;100613.50;4995853;28;20918;-74
2022/12/17 15:53:35;;;;;;;31.40;14.00;;;;;;;43.51;31.98;100613.56;4973722;28;20493;-74
2022/12/17 15:56:03;;;;;;;18.23;11.60;;;;;;;43.25;31.57;100605.84;4972624;28;20194;-74
2022/12/17 15:58:29;;;;;;;25.70;11.90;;;;;;;43.38;31.37;100615.56;4977913;28;20429;-74
2022/12/17 16:00:55;;;;;;;24.73;11.80;;;;;;;43.19;32.00;100615.44;4976497;28;20433;-73
2022/12/17 16:03:21;;;;;;;26.33;12.70;;;;;;;43.39;31.82;100622.63;4985161;28;20805;-75
2022/12/17 16:05:47;;;;;;;41.93;14.63;;;;;;;42.95;32.51;100629.94;4971373;28;20561;-71
2022/12/17 16:08:15;;;;;;;27.03;15.17;;;;;;;42.84;33.07;100632.34;4995829;28;20515;-74
2022/12/17 16:10:41;;;;;;;32.03;11.87;;;;;;;42.64;33.19;100627.88;4978286;28;20426;-76
2022/12/17 16:13:07;;;;;;;17.63;11.10;;;;;;;42.73;32.78;100633.22;4996196;28;20436;-76
2022/12/17 16:15:33;;;;;;;27.13;12.23;;;;;;;41.97;34.34;100638.22;4994676;28;20437;-73
2022/12/17 16:17:59;;;;;;;35.37;15.33;;;;;;;42.04;34.66;100649.34;4993567;28;20781;-74
2022/12/17 16:20:25;;;;;;;16.87;11.40;;;;;;;42.22;34.18;100644.50;4993650;28;20959;-74
2022/12/17 16:22:51;;;;;;;22.83;13.57;;;;;;;42.00;34.50;100642.19;4977993;28;20428;-73
2022/12/17 16:25:17;;;;;;;23.80;12.67;;;;;;;42.41;33.84;100643.91;4976900;28;20545;-74
2022/12/17 16:27:43;;;;;;;38.60;13.53;;;;;;;42.55;33.85;100646.28;4978027;28;20658;-73
2022/12/17 16:30:10;;;;;;;28.77;15.10;;;;;;;41.80;34.62;100633.75;4974730;28;20452;-74
2022/12/17 16:32:37;;;;;;;24.43;13.80;;;;;;;41.93;34.67;100658.28;4989473;28;20463;-74
2022/12/17 16:35:04;;;;;;;22.93;13.80;;;;;;;42.04;34.37;100656.72;4995204;28;20477;-74
2022/12/17 16:37:30;;;;;;;22.77;10.83;;;;;;;41.70;35.02;100668.81;4977607;28;20459;-74
2022/12/17 16:39:56;;;;;;;31.83;13.20;;;;;;;42.19;34.61;100664.25;4977354;28;20520;-73
2022/12/17 16:42:22;;;;;;;22.67;12.53;;;;;;;41.92;34.93;100668.41;4988358;28;20582;-74
2022/12/17 16:44:48;;;;;;;24.70;13.37;;;;;;;41.47;35.56;100671.91;4977537;28;20480;-73
2022/12/17 16:47:14;;;;;;;36.73;15.17;;;;;;;42.00;35.31;100672.19;4976947;28;20421;-74
2022/12/17 16:49:40;;;;;;;38.43;16.50;;;;;;;42.30;34.45;100679.03;4994491;28;20531;-74
2022/12/17 16:52:06;;;;;;;28.17;13.40;;;;;;;41.40;35.91;100676.31;4988187;28;20512;-74
2022/12/17 16:54:32;;;;;;;19.50;10.87;;;;;;;41.22;36.21;100675.63;4982441;28;20421;-73
2022/12/17 16:57:01;;;;;;;20.60;12.70;;;;;;;41.30;36.23;100694.59;4991703;28;20461;-73
2022/12/17 16:59:28;;;;;;;40.53;12.97;;;;;;;42.06;35.26;100681.72;4959401;28;20423;-74
2022/12/17 17:01:56;;;;;;;32.63;14.47;;;;;;;41.94;35.40;100687.16;4978631;28;20414;-75
2022/12/17 17:04:22;;;;;;;30.23;12.77;;;;;;;42.02;35.22;100688.97;4993381;28;20445;-75
2022/12/17 17:06:54;;;;;;;28.67;12.77;;;;;;;42.04;35.10;100686.69;4993664;28;20413;-74
2022/12/17 17:09:21;;;;;;;19.47;11.63;;;;;;;41.76;35.32;100686.56;4993264;28;20456;-78
2022/12/17 17:11:47;;;;;;;27.23;14.90;;;;;;;41.91;35.25;100690.53;4999378;28;20453;-79
2022/12/17 17:14:13;;;;;;;28.77;13.43;;;;;;;41.53;35.99;100694.28;4996887;28;20429;-78
2022/12/17 17:16:39;;;;;;;23.40;13.40;;;;;;;41.07;36.21;100709.72;4975218;28;20471;-78
2022/12/17 17:19:05;;;;;;;27.93;14.87;;;;;;;41.06;36.57;100725.22;4992901;28;20398;-77
2022/12/17 17:21:35;;;;;;;22.80;14.63;;;;;;;41.36;36.27;100718.94;4991450;28;20417;-77
2022/12/17 17:24:06;;;;;;;19.20;12.93;;;;;;;41.36;36.27;100708.03;4991524;28;20433;-74
2022/12/17 17:26:33;;;;;;;33.97;13.53;;;;;;;41.01;36.95;100716.47;4994039;28;20961;-74
2022/12/17 17:29:00;;;;;;;24.00;12.27;;;;;;;40.85;37.13;100723.59;4992442;28;20440;-73
2022/12/17 17:31:26;;;;;;;24.67;12.83;;;;;;;41.19;36.56;100736.16;4965443;28;20413;-74
2022/12/17 17:33:53;;;;;;;31.53;14.03;;;;;;;41.24;35.98;100717.72;4992770;28;20504;-73
2022/12/17 17:36:30;;;;;;;24.47;13.73;;;;;;;41.50;35.80;100736.59;4992946;28;20524;-73
2022/12/17 17:38:57;;;;;;;21.40;12.03;;;;;;;40.84;36.94;100751.91;4992794;28;20833;-73
2022/12/17 17:41:26;;;;;;;28.00;14.63;;;;;;;41.39;36.25;100740.84;4988611;28;20425;-73
2022/12/17 17:44:07;;;;;;;35.43;13.63;;;;;;;41.38;35.87;100749.38;4992863;28;20417;-73
2022/12/17 17:46:33;;;;;;;34.27;13.97;;;;;;;41.45;35.96;100747.69;4975457;28;20920;-76
2022/12/17 17:49:02;;;;;;;23.33;12.67;;;;;;;41.31;36.35;100749.84;4976564;28;20456;-74
2022/12/17 17:51:31;;;;;;;27.03;15.40;;;;;;;41.49;36.57;100751.31;4976426;28;20797;-74
2022/12/17 17:53:59;;;;;;;33.87;15.40;;;;;;;41.64;36.14;100765.47;5008891;28;20409;-75
2022/12/17 17:56:28;;;;;;;27.73;15.00;;;;;;;41.28;36.58;100759.47;4994165;28;20452;-74
2022/12/17 17:59:03;;;;;;;31.53;18.37;;;;;;;41.47;36.06;100764.47;4976368;28;20812;-73
2022/12/17 18:01:32;;;;;;;24.37;14.10;;;;;;;41.75;35.67;100758.50;4978396;28;20452;-73
2022/12/17 18:04:01;;;;;;;29.37;15.37;;;;;;;41.97;35.39;100765.47;4976273;28;20421;-76
2022/12/17 18:06:28;;;;;;;23.80;13.67;;;;;;;41.71;36.10;100768.44;4992387;28;20473;-75
2022/12/17 18:08:58;;;;;;;43.00;15.80;;;;;;;41.75;35.58;100778.38;4976258;28;20972;-75
2022/12/17 18:11:29;;;;;;;22.50;13.40;;;;;;;41.58;35.79;100782.00;4976181;28;20417;-76
2022/12/17 18:13:56;;;;;;;24.80;14.77;;;;;;;41.45;36.18;100777.63;5008623;28;20794;-75
2022/12/17 18:16:34;;;;;;;35.03;15.17;;;;;;;40.83;37.48;100785.69;5007828;28;20453;-73
2022/12/17 18:19:03;;;;;;;20.63;16.13;;;;;;;41.42;36.77;100791.91;4976115;28;20455;-74
2022/12/17 18:21:30;;;;;;;21.57;14.47;;;;;;;41.75;35.77;100788.47;4976315;28;20925;-76
2022/12/17 18:27:04;;;;;;;29.57;15.93;;;;;;;41.53;35.87;100805.91;4962303;28;20816;-70
2022/12/17 18:29:31;;;;;;;29.07;13.37;;;;;;;41.53;36.44;100805.91;4992077;28;20413;-70
2022/12/17 18:31:57;;;;;;;18.10;14.40;;;;;;;41.88;36.13;100817.34;4982751;28;20456;-72
2022/12/17 18:34:26;;;;;;;37.63;15.63;;;;;;;41.73;36.02;100816.00;4975758;28;20461;-70
2022/12/17 18:36:52;;;;;;;26.10;15.13;;;;;;;41.75;36.23;100823.88;4974986;28;20457;-68
2022/12/17 18:39:24;;;;;;;25.10;15.53;;;;;;;41.65;35.89;100833.22;4975771;28;20457;-72
2022/12/17 18:44:40;;;;;;;22.37;13.57;;;;;;;41.74;35.82;100844.03;4985107;28;20394;-70
2022/12/17 18:47:07;;;;;;;31.10;13.60;;;;;;;41.23;36.82;100840.53;4956708;28;20816;-73
2022/12/17 18:49:34;;;;;;;26.77;16.33;;;;;;;41.80;35.88;100840.78;4961825;28;20449;-71
2022/12/17 18:52:00;;;;;;;26.07;13.63;;;;;;;41.74;35.66;100844.88;4992183;28;20433;-73
2022/12/17 18:54:35;;;;;;;27.70;14.10;;;;;;;41.61;35.76;100848.63;4975431;28;20479;-73
2022/12/17 18:57:01;;;;;;;27.50;14.57;;;;;;;41.72;35.43;100851.75;4975316;28;20453;-71
2022/12/17 18:59:29;;;;;;;26.73;15.27;;;;;;;41.84;35.49;100858.06;4975125;28;20453;-72
2022/12/17 19:01:56;;;;;;;25.30;15.10;;;;;;;41.72;35.31;100860.72;4982780;28;20430;-73
2022/12/17 19:04:22;;;;;;;24.27;15.50;;;;;;;42.07;35.20;100857.72;4989705;28;20466;-70
2022/12/17 19:06:50;;;;;;;22.63;12.87;;;;;;;42.03;35.00;100873.13;4975675;28;20418;-71
2022/12/17 19:09:29;;;;;;;21.93;13.13;;;;;;;42.03;35.32;100878.59;4975621;28;20560;-71
2022/12/17 19:11:56;;;;;;;29.00;15.00;;;;;;;42.07;35.59;100879.53;4997022;28;20448;-72
2022/12/17 19:14:23;;;;;;;39.53;18.20;;;;;;;42.26;34.54;100881.78;5012105;28;20868;-73
2022/12/17 19:16:51;;;;;;;18.73;12.20;;;;;;;42.19;34.66;100893.22;5011875;28;20530;-70
2022/12/17 19:19:19;;;;;;;20.00;12.27;;;;;;;42.25;34.43;100894.63;5011763;28;20872;-70
2022/12/17 19:21:45;;;;;;;25.97;13.50;;;;;;;42.36;34.64;100895.78;4976877;28;20438;-71
2022/12/17 19:24:14;;;;;;;22.60;14.83;;;;;;;42.20;34.37;100889.38;4978962;28;21019;-74
2022/12/17 19:26:40;;;;;;;31.10;14.00;;;;;;;42.11;34.41;100880.44;4997072;28;20400;-73
2022/12/17 19:29:07;;;;;;;24.97;15.37;;;;;;;42.26;34.17;100889.97;4979088;28;20405;-75
2022/12/17 19:31:34;;;;;;;29.50;13.43;;;;;;;42.37;34.22;100886.47;4982578;28;20436;-75
2022/12/17 19:34:04;;;;;;;17.97;12.63;;;;;;;42.38;34.30;100888.06;4994906;28;20480;-77
2022/12/17 19:36:32;;;;;;;25.83;13.27;;;;;;;42.19;34.31;100885.06;4994426;28;20549;-77
2022/12/17 19:39:01;;;;;;;20.40;12.20;;;;;;;42.40;34.28;100893.97;4993628;28;20809;-73
2022/12/17 19:41:28;;;;;;;25.97;12.93;;;;;;;42.45;34.31;100894.91;4980634;28;20483;-74
2022/12/17 19:44:00;;;;;;;18.10;12.20;;;;;;;42.26;34.62;100898.94;4995204;28;20425;-75
2022/12/17 19:46:26;;;;;;;18.70;12.00;;;;;;;42.39;34.50;100903.28;4989043;28;20458;-77
2022/12/17 19:48:53;;;;;;;23.80;13.80;;;;;;;42.40;34.40;100901.34;4983809;28;20425;-75
2022/12/17 19:51:21;;;;;;;26.97;13.53;;;;;;;42.08;35.00;100906.44;4975205;28;20445;-74
2022/12/17 19:53:48;;;;;;;24.43;13.30;;;;;;;42.27;34.61;100899.72;4975775;28;20533;-77
2022/12/17 19:56:18;;;;;;;27.50;15.80;;;;;;;42.30;34.52;100915.44;4984861;28;20469;-76
2022/12/17 19:58:47;;;;;;;33.57;13.30;;;;;;;42.28;35.00;100914.94;4975270;28;20432;-73
2022/12/17 20:01:16;;;;;;;19.63;12.73;;;;;;;42.19;34.93;100917.75;4975689;28;20424;-74
2022/12/17 20:03:44;;;;;;;26.57;14.20;;;;;;;42.31;34.74;100915.09;4977218;28;20429;-76
2022/12/17 20:06:13;;;;;;;21.90;15.20;;;;;;;42.31;34.90;100906.09;4977619;28;20460;-76
2022/12/17 20:08:40;;;;;;;25.93;13.00;;;;;;;42.28;34.89;100906.75;4980600;28;20922;-72
2022/12/17 20:14:13;;;;;;;28.77;16.40;;;;;;;42.34;34.42;100914.41;4982379;28;20480;-75
2022/12/17 20:16:50;;;;;;;22.30;14.07;;;;;;;42.23;34.40;100909.69;4994107;28;20980;-75
2022/12/17 20:19:20;;;;;;;22.83;12.50;;;;;;;42.37;34.55;100921.91;4980670;28;20517;-79
2022/12/17 20:21:50;;;;;;;30.77;13.20;;;;;;;42.30;34.44;100923.59;4970647;28;20453;-66
2022/12/17 20:24:20;;;;;;;20.83;10.83;;;;;;;42.22;34.33;100919.81;4981103;28;20460;-75
2022/12/17 20:27:04;;;;;;;29.23;12.23;;;;;;;42.11;35.00;100924.88;5005027;28;20452;-80
2022/12/17 20:29:32;;;;;;;31.03;15.00;;;;;;;41.97;35.46;100937.94;4978550;28;20422;-75
2022/12/17 20:32:03;;;;;;;18.33;11.27;;;;;;;41.92;35.62;100948.25;4972099;28;20466;-75
2022/12/17 20:34:30;;;;;;;24.80;15.53;;;;;;;42.10;35.11;100942.31;4953338;28;20987;-74
2022/12/17 20:37:03;;;;;;;23.93;12.93;;;;;;;42.00;35.46;100947.41;4968544;28;20467;-79
2022/12/17 20:39:30;;;;;;;26.80;13.83;;;;;;;41.79;35.86;100941.94;4963251;28;20987;-77
2022/12/17 20:41:57;;;;;;;22.40;12.90;;;;;;;41.79;35.61;100948.16;4966953;28;20427;-73
2022/12/17 20:44:23;;;;;;;28.90;13.80;;;;;;;41.49;36.40;100946.56;4968363;28;20433;-74
2022/12/17 20:46:49;;;;;;;24.60;12.57;;;;;;;41.74;36.27;100948.38;4961178;28;20446;-74
2022/12/17 20:49:15;;;;;;;28.40;16.40;;;;;;;41.71;35.89;100943.56;4964227;28;20986;-74
2022/12/17 20:51:41;;;;;;;20.53;13.80;;;;;;;41.75;36.01;100944.53;4964638;28;20476;-76
2022/12/17 20:54:07;;;;;;;23.17;11.90;;;;;;;41.77;36.03;100946.91;4968288;28;20504;-74
2022/12/17 20:56:34;;;;;;;21.00;13.40;;;;;;;41.70;36.20;100950.13;4966872;28;20462;-75
2022/12/17 20:59:03;;;;;;;25.33;11.97;;;;;;;41.65;36.14;100942.16;4964958;28;20530;-74
2022/12/17 21:01:32;;;;;;;25.43;12.93;;;;;;;41.78;35.91;100927.50;4974484;28;20513;-75
2022/12/17 21:03:59;;;;;;;27.17;13.10;;;;;;;41.61;36.01;100922.94;4965551;28;20435;-74
2022/12/17 21:06:34;;;;;;;22.37;13.17;;;;;;;41.80;36.03;100927.97;4963996;28;20794;-73
2022/12/17 21:09:00;;;;;;;26.90;13.47;;;;;;;41.77;35.86;100931.38;4967247;28;20520;-75
2022/12/17 21:11:29;;;;;;;30.27;15.77;;;;;;;41.82;35.85;100938.56;4972482;28;20470;-75
2022/12/17 21:13:55;;;;;;;32.10;16.83;;;;;;;41.86;35.78;100932.09;4967608;28;20807;-71
2022/12/17 21:16:43;;;;;;;24.80;14.27;;;;;;;41.96;35.60;100939.09;4966870;28;20978;-73
2022/12/17 21:19:16;;;;;;;20.10;12.27;;;;;;;41.47;36.31;100927.84;4966349;28;20434;-76
2022/12/17 21:21:43;;;;;;;22.67;12.50;;;;;;;41.91;35.88;100939.28;4972038;28;20413;-74
2022/12/17 21:24:10;;;;;;;23.83;13.23;;;;;;;42.04;35.27;100937.41;4960297;28;20459;-73
2022/12/17 21:26:41;;;;;;;21.80;11.10;;;;;;;42.05;35.47;100939.81;4967145;28;20437;-76
2022/12/17 21:29:09;;;;;;;35.73;14.60;;;;;;;41.80;35.96;100936.13;4988333;28;20430;-74
2022/12/17 21:31:37;;;;;;;24.20;12.67;;;;;;;41.77;35.87;100936.81;4967300;28;20434;-73
2022/12/17 21:34:05;;;;;;;19.83;11.40;;;;;;;41.59;35.87;100924.41;4971671;28;20812;-72
2022/12/17 21:36:32;;;;;;;19.40;13.20;;;;;;;41.78;36.02;100935.69;4997466;28;20512;-70
2022/12/17 21:38:59;;;;;;;28.67;15.10;;;;;;;41.80;36.00;100944.31;4983054;28;20445;-74
2022/12/17 21:41:28;;;;;;;19.50;11.30;;;;;;;41.83;35.84;100938.22;4988334;28;20432;-73
2022/12/17 21:43:55;;;;;;;23.00;13.40;;;;;;;41.85;35.72;100941.41;4975878;28;20434;-73
2022/12/17 21:46:22;;;;;;;24.57;15.13;;;;;;;41.89;35.68;100938.03;4991790;28;20418;-75
2022/12/17 21:48:48;;;;;;;26.47;12.67;;;;;;;41.88;35.77;100936.44;4975574;28;20812;-75
2022/12/17 21:51:15;;;;;;;22.70;12.57;;;;;;;41.71;36.04;100920.97;4976118;28;20449;-74
2022/12/17 21:53:42;;;;;;;23.40;17.87;;;;;;;41.46;36.56;100933.63;4992370;28;20435;-74
2022/12/17 21:56:14;;;;;;;17.97;12.10;;;;;;;41.19;36.68;100922.06;4992129;28;20469;-69
2022/12/17 21:58:41;;;;;;;24.97;14.83;;;;;;;41.39;36.45;100919.75;4992474;28;20432;-69
2022/12/17 22:01:13;;;;;;;21.77;12.13;;;;;;;41.59;35.90;100924.41;4993601;28;20434;-78
2022/12/17 22:03:39;;;;;;;28.67;13.70;;;;;;;41.67;35.93;100912.66;4974338;28;20434;-73
2022/12/17 22:06:08;;;;;;;15.80;12.30;;;;;;;41.63;36.36;100919.91;4993695;28;20406;-74
2022/12/17 22:08:35;;;;;;;24.13;13.27;;;;;;;41.63;36.15;100916.38;4992250;28;20439;-70
2022/12/17 22:11:01;;;;;;;21.13;13.80;;;;;;;41.71;36.25;100913.59;4992248;28;20774;-73
2022/12/17 22:16:12;;;;;;;25.27;14.47;;;;;;;41.89;36.14;100919.75;4991714;28;21055;-73
2022/12/17 22:18:39;;;;;;;24.00;13.40;;;;;;;41.60;36.27;100915.09;4975388;28;20417;-73
2022/12/17 22:21:06;;;;;;;21.63;14.57;;;;;;;41.67;36.33;100915.38;4975912;28;20413;-73
2022/12/17 22:23:32;;;;;;;38.17;15.33;;;;;;;41.34;36.53;100901.66;4976138;28;20504;-73
2022/12/17 22:25:57;;;;;;;38.60;13.10;;;;;;;41.46;36.82;100909.91;4992136;28;20445;-74
2022/12/17 22:28:24;;;;;;;36.37;16.37;;;;;;;41.10;37.04;100920.50;4986240;28;21020;-73
2022/12/17 22:33:34;;;;;;;23.63;13.53;;;;;;;41.34;36.61;100902.47;4992955;28;21009;-75
2022/12/17 22:36:01;;;;;;;36.33;16.27;;;;;;;41.12;36.98;100899.97;4988046;28;21066;-73
2022/12/17 22:38:28;;;;;;;22.33;15.20;;;;;;;41.26;36.78;100899.75;4991726;28;20934;-73
2022/12/17 22:40:54;;;;;;;37.80;15.20;;;;;;;41.31;36.69;100905.81;4975783;28;20464;-73
2022/12/17 22:43:29;;;;;;;21.63;13.87;;;;;;;41.22;37.25;100896.88;4990903;28;20437;-71
2022/12/17 22:46:02;;;;;;;20.40;12.60;;;;;;;40.98;37.27;100899.41;4992829;28;20401;-73
2022/12/17 22:48:30;;;;;;;23.90;14.43;;;;;;;41.07;37.02;100890.09;4990708;28;20445;-73
2022/12/17 22:50:56;;;;;;;20.20;13.43;;;;;;;40.96;37.42;100897.03;4972805;28;20563;-74
2022/12/17 22:53:24;;;;;;;21.33;13.50;;;;;;;40.95;37.17;100909.03;4975698;28;20446;-73
2022/12/17 22:55:50;;;;;;;29.20;15.63;;;;;;;40.94;37.63;100893.81;4975568;28;20794;-73
2022/12/17 22:58:17;;;;;;;17.73;11.73;;;;;;;40.81;37.99;100898.31;4975744;28;20453;-74
2022/12/17 23:00:43;;;;;;;32.60;13.90;;;;;;;41.16;37.15;100905.56;4987560;28;20417;-73
2022/12/17 23:03:09;;;;;;;23.97;14.93;;;;;;;41.08;37.27;100901.78;4991561;28;20933;-74
2022/12/17 23:05:35;;;;;;;18.30;12.77;;;;;;;41.06;36.89;100890.41;4990528;28;20448;-73
2022/12/17 23:08:01;;;;;;;34.13;13.97;;;;;;;40.91;37.54;100897.19;4975693;28;20425;-73
2022/12/17 23:10:27;;;;;;;22.50;12.70;;;;;;;40.97;37.22;100898.63;4975741;28;20424;-73
2022/12/17 23:12:55;;;;;;;20.90;13.80;;;;;;;40.97;37.23;100903.25;5008070;28;20417;-73
2022/12/17 23:15:22;;;;;;;19.40;14.03;;;;;;;40.86;37.72;100894.63;5008057;28;20421;-73
2022/12/17 23:17:49;;;;;;;20.87;13.00;;;;;;;40.87;37.49;100901.66;5007878;28;20441;-72
2022/12/17 23:20:15;;;;;;;26.67;15.60;;;;;;;41.24;37.47;100902.00;4993468;28;20424;-73
2022/12/17 23:22:41;;;;;;;30.00;15.80;;;;;;;40.97;37.39;100895.09;4992868;28;20444;-73
2022/12/17 23:25:09;;;;;;;25.53;13.00;;;;;;;40.95;37.65;100900.88;4984986;28;20437;-74
2022/12/17 23:27:35;;;;;;;34.00;15.30;;;;;;;40.74;37.82;100902.66;4991550;28;20437;-73
2022/12/17 23:30:01;;;;;;;14.80;11.60;;;;;;;40.96;37.25;100894.31;4993111;28;20436;-74
2022/12/17 23:32:27;;;;;;;26.80;13.83;;;;;;;40.92;37.63;100895.28;4992807;28;20819;-73
2022/12/17 23:34:52;;;;;;;21.27;12.90;;;;;;;41.33;36.88;100892.69;4991164;28;20997;-73
2022/12/17 23:37:18;;;;;;;26.73;14.33;;;;;;;41.16;37.54;100886.53;4990796;28;20496;-70
2022/12/17 23:39:44;;;;;;;24.43;14.70;;;;;;;41.33;37.35;100900.06;4974886;28;20436;-73
2022/12/17 23:42:10;;;;;;;25.17;13.20;;;;;;;41.15;37.54;100893.88;4992294;28;20456;-73
2022/12/17 23:44:36;;;;;;;22.80;12.73;;;;;;;41.08;37.07;100893.59;4975111;28;20421;-73
2022/12/17 23:47:02;;;;;;;28.83;13.30;;;;;;;41.01;37.54;100894.13;4975190;28;20428;-74
2022/12/17 23:49:28;;;;;;;20.90;14.63;;;;;;;41.21;36.99;100897.22;4975265;28;20428;-74
2022/12/17 23:51:54;;;;;;;25.43;14.83;;;;;;;41.34;36.86;100907.91;4975095;28;20417;-74
2022/12/17 23:54:20;;;;;;;27.90;13.73;;;;;;;41.22;36.85;100909.69;4974111;28;20480;-73
2022/12/17 23:56:46;;;;;;;20.27;14.50;;;;;;;41.43;36.80;100898.88;4976735;28;20539;-73
2022/12/17 23:59:12;;;;;;;23.53;12.10;;;;;;;41.20;36.88;100896.44;4978700;28;20452;-74
